createdAt,value
2023-03-06T00:01:39.245Z,96.80
2023-03-06T00:04:08.173Z,96.80
2023-03-06T00:06:35.073Z,96.80
2023-03-06T00:09:01.894Z,96.90
2023-03-06T00:11:28.702Z,96.90
2023-03-06T00:13:56.960Z,97.00
2023-03-06T00:16:24.871Z,97.10
2023-03-06T00:18:51.673Z,97.00
2023-03-06T00:21:18.705Z,97.00
2023-03-06T00:23:45.544Z,97.00
2023-03-06T00:26:12.398Z,97.10
2023-03-06T00:28:39.350Z,97.10
2023-03-06T00:31:07.627Z,97.10
2023-03-06T00:33:34.678Z,97.20
2023-03-06T00:36:04.522Z,97.20
2023-03-06T00:38:33.426Z,97.30
2023-03-06T00:41:00.344Z,97.70
2023-03-06T00:43:27.174Z,97.80
2023-03-06T00:45:54.032Z,97.70
2023-03-06T00:48:22.170Z,97.60
2023-03-06T00:50:48.994Z,97.50
2023-03-06T00:53:15.751Z,97.50
2023-03-06T00:55:45.317Z,97.50
2023-03-06T00:58:12.354Z,97.50
2023-03-06T01:00:39.199Z,97.60
2023-03-06T01:03:05.959Z,97.60
2023-03-06T01:05:36.896Z,97.60
2023-03-06T01:08:04.089Z,97.60
2023-03-06T01:10:33.955Z,97.60
2023-03-06T01:13:00.734Z,97.60
2023-03-06T01:15:27.501Z,97.60
2023-03-06T01:17:54.994Z,97.50
2023-03-06T01:20:22.342Z,97.60
2023-03-06T01:22:50.655Z,97.60
2023-03-06T01:25:17.809Z,97.60
2023-03-06T01:27:44.654Z,97.60
2023-03-06T01:30:12.822Z,97.60
2023-03-06T01:32:39.783Z,97.70
2023-03-06T01:35:07.708Z,97.70
2023-03-06T01:37:35.626Z,97.70
2023-03-06T01:40:04.101Z,97.70
2023-03-06T01:42:32.192Z,97.70
2023-03-06T01:45:01.010Z,98.10
2023-03-06T01:47:28.131Z,97.80
2023-03-06T01:49:56.059Z,97.80
2023-03-06T01:52:25.605Z,97.90
2023-03-06T01:54:56.717Z,97.90
2023-03-06T01:57:27.371Z,98.00
2023-03-06T01:59:59.520Z,98.00
2023-03-06T02:02:26.638Z,98.10
2023-03-06T02:04:53.562Z,98.20
2023-03-06T02:07:21.435Z,98.30
2023-03-06T02:09:48.265Z,98.30
2023-03-06T02:12:19.016Z,98.50
2023-03-06T02:14:47.812Z,98.60
2023-03-06T02:17:17.438Z,98.60
2023-03-06T02:19:52.503Z,98.70
2023-03-06T02:22:19.773Z,98.80
2023-03-06T02:24:52.282Z,98.80
2023-03-06T02:27:22.677Z,98.90
2023-03-06T02:29:49.588Z,99.00
2023-03-06T02:32:16.699Z,99.00
2023-03-06T02:34:55.799Z,99.00
2023-03-06T02:37:24.569Z,99.10
2023-03-06T02:39:59.866Z,99.20
2023-03-06T02:42:31.677Z,99.30
2023-03-06T02:45:01.356Z,99.30
2023-03-06T02:47:28.119Z,99.30
2023-03-06T02:49:55.573Z,99.30
2023-03-06T02:52:22.506Z,99.40
2023-03-06T02:54:49.375Z,99.50
2023-03-06T02:57:16.228Z,99.50
2023-03-06T02:59:44.269Z,99.60
2023-03-06T03:02:11.287Z,99.60
2023-03-06T03:04:38.245Z,99.70
2023-03-06T03:07:05.282Z,99.70
2023-03-06T03:09:36.798Z,99.80
2023-03-06T03:12:05.911Z,99.70
2023-03-06T03:14:33.125Z,99.70
2023-03-06T03:17:01.350Z,99.80
2023-03-06T03:19:28.310Z,99.80
2023-03-06T03:21:55.133Z,99.80
2023-03-06T03:24:22.070Z,99.90
2023-03-06T03:26:48.938Z,99.90
2023-03-06T03:29:15.925Z,99.90
2023-03-06T03:31:42.779Z,99.90
2023-03-06T03:34:11.100Z,99.90
2023-03-06T03:36:40.098Z,99.90
2023-03-06T03:39:06.984Z,99.90
2023-03-06T03:41:34.022Z,99.90
2023-03-06T03:44:00.853Z,99.90
2023-03-06T03:46:27.932Z,99.90
2023-03-06T03:48:54.838Z,99.90
2023-03-06T03:51:23.032Z,99.90
2023-03-06T03:53:50.006Z,99.90
2023-03-06T03:56:17.031Z,99.90
2023-03-06T03:58:43.821Z,99.90
2023-03-06T04:01:10.668Z,99.90
2023-03-06T04:03:37.559Z,99.90
2023-03-06T04:06:04.803Z,99.90
2023-03-06T04:08:33.248Z,99.90
2023-03-06T04:11:00.117Z,99.90
2023-03-06T04:13:27.090Z,99.90
2023-03-06T04:15:55.314Z,99.90
2023-03-06T04:18:23.256Z,99.90
2023-03-06T04:20:50.608Z,99.90
2023-03-06T04:23:17.807Z,99.90
2023-03-06T04:25:46.764Z,99.90
2023-03-06T04:28:13.870Z,99.90
2023-03-06T04:30:40.798Z,99.90
2023-03-06T04:33:07.723Z,99.90
2023-03-06T04:35:34.590Z,99.90
2023-03-06T04:38:01.727Z,99.90
2023-03-06T04:40:30.799Z,99.90
2023-03-06T04:43:00.845Z,99.90
2023-03-06T04:45:28.754Z,99.90
2023-03-06T04:47:56.217Z,99.90
2023-03-06T04:50:24.139Z,99.90
2023-03-06T04:52:51.220Z,99.90
2023-03-06T04:55:19.141Z,99.90
2023-03-06T04:57:47.479Z,99.90
2023-03-06T05:00:20.257Z,99.90
2023-03-06T05:02:48.465Z,99.90
2023-03-06T05:05:16.059Z,99.90
2023-03-06T05:07:43.545Z,99.90
2023-03-06T05:10:12.963Z,99.90
2023-03-06T05:12:40.069Z,99.90
2023-03-06T05:15:08.696Z,99.90
2023-03-06T05:17:37.239Z,99.90
2023-03-06T05:20:06.239Z,99.90
2023-03-06T05:22:33.494Z,99.90
2023-03-06T05:25:00.336Z,99.90
2023-03-06T05:27:27.723Z,99.90
2023-03-06T05:29:54.867Z,99.90
2023-03-06T05:32:21.788Z,99.90
2023-03-06T05:34:50.300Z,99.90
2023-03-06T05:37:17.255Z,99.90
2023-03-06T05:39:44.348Z,99.90
2023-03-06T05:42:11.150Z,99.90
2023-03-06T05:44:38.084Z,99.90
2023-03-06T05:47:05.389Z,99.90
2023-03-06T05:49:33.656Z,99.90
2023-03-06T05:52:03.971Z,99.90
2023-03-06T05:54:30.931Z,99.90
2023-03-06T05:56:57.877Z,99.90
2023-03-06T05:59:29.922Z,99.90
2023-03-06T06:01:57.099Z,99.90
2023-03-06T06:04:26.111Z,99.90
2023-03-06T06:06:54.558Z,99.90
2023-03-06T06:09:22.827Z,99.90
2023-03-06T06:11:51.818Z,99.90
2023-03-06T06:14:18.685Z,99.90
2023-03-06T06:16:45.476Z,99.90
2023-03-06T06:19:18.475Z,99.90
2023-03-06T06:21:47.053Z,99.90
2023-03-06T06:24:15.063Z,99.90
2023-03-06T06:26:43.535Z,99.90
2023-03-06T06:29:11.480Z,99.90
2023-03-06T06:31:38.411Z,99.90
2023-03-06T06:34:06.551Z,99.90
2023-03-06T06:36:33.907Z,99.90
2023-03-06T06:39:00.858Z,99.90
2023-03-06T06:41:50.656Z,99.90
2023-03-06T06:44:17.652Z,99.90
2023-03-06T06:49:32.929Z,99.90
2023-03-06T06:52:00.098Z,99.90
2023-03-06T06:54:27.402Z,99.90
2023-03-06T06:56:54.669Z,99.90
2023-03-06T06:59:25.692Z,99.90
2023-03-06T07:01:52.965Z,99.90
2023-03-06T07:04:20.477Z,99.90
2023-03-06T07:06:47.356Z,99.90
2023-03-06T07:09:14.796Z,99.90
2023-03-06T07:11:42.133Z,99.90
2023-03-06T07:14:09.449Z,99.90
2023-03-06T07:16:37.683Z,99.90
2023-03-06T07:19:04.592Z,99.90
2023-03-06T07:21:31.668Z,99.90
2023-03-06T07:23:58.879Z,99.90
2023-03-06T07:26:26.179Z,99.90
2023-03-06T07:28:53.720Z,99.90
2023-03-06T07:31:22.129Z,99.90
2023-03-06T07:33:51.613Z,99.90
2023-03-06T07:36:18.880Z,99.90
2023-03-06T07:38:45.772Z,99.90
2023-03-06T07:41:13.740Z,99.90
2023-03-06T07:43:41.275Z,99.90
2023-03-06T07:46:08.989Z,99.90
2023-03-06T07:48:36.145Z,99.90
2023-03-06T07:51:06.449Z,99.90
2023-03-06T07:53:34.300Z,99.90
2023-03-06T07:56:01.257Z,99.90
2023-03-06T07:58:28.265Z,99.90
2023-03-06T08:00:55.078Z,99.90
2023-03-06T08:03:21.936Z,99.90
2023-03-06T08:05:48.827Z,99.90
2023-03-06T08:08:16.983Z,99.90
2023-03-06T08:10:48.086Z,99.90
2023-03-06T08:13:15.055Z,99.90
2023-03-06T08:15:46.779Z,99.90
2023-03-06T08:18:14.011Z,99.90
2023-03-06T08:20:40.878Z,99.90
2023-03-06T08:23:07.788Z,99.90
2023-03-06T08:25:36.145Z,99.90
2023-03-06T08:28:03.147Z,99.90
2023-03-06T08:30:30.354Z,99.90
2023-03-06T08:32:57.210Z,99.90
2023-03-06T08:35:23.991Z,99.90
2023-03-06T08:37:50.874Z,99.90
2023-03-06T08:40:17.942Z,99.90
2023-03-06T08:42:47.966Z,99.90
2023-03-06T08:45:14.853Z,99.90
2023-03-06T08:47:41.693Z,99.90
2023-03-06T08:50:10.034Z,99.90
2023-03-06T08:52:36.911Z,99.90
2023-03-06T08:55:04.175Z,99.90
2023-03-06T08:57:31.516Z,99.90
2023-03-06T08:59:59.774Z,99.90
2023-03-06T09:02:26.844Z,99.90
2023-03-06T09:04:54.088Z,99.90
2023-03-06T09:07:21.028Z,99.90
2023-03-06T09:09:47.873Z,99.90
2023-03-06T09:12:14.768Z,99.90
2023-03-06T09:14:41.664Z,99.90
2023-03-06T09:17:09.981Z,99.90
2023-03-06T09:19:37.776Z,99.90
2023-03-06T09:22:04.773Z,99.90
2023-03-06T09:24:31.605Z,99.90
2023-03-06T09:26:58.561Z,99.90
2023-03-06T09:29:25.526Z,99.90
2023-03-06T09:31:52.462Z,99.90
2023-03-06T09:34:20.797Z,99.90
2023-03-06T09:36:56.911Z,99.90
2023-03-06T09:39:25.194Z,99.90
2023-03-06T09:41:52.737Z,99.90
2023-03-06T09:44:22.804Z,99.90
2023-03-06T09:47:26.426Z,99.90
2023-03-06T09:50:10.271Z,99.90
2023-03-06T09:52:43.544Z,99.90
2023-03-06T09:55:15.137Z,99.90
2023-03-06T09:57:51.198Z,99.90
2023-03-06T10:00:23.719Z,99.90
2023-03-06T10:02:56.944Z,99.90
2023-03-06T10:05:28.837Z,99.90
2023-03-06T10:08:01.308Z,99.90
2023-03-06T10:10:36.170Z,99.90
2023-03-06T10:13:10.062Z,99.90
2023-03-06T10:15:41.284Z,99.90
2023-03-06T10:18:11.629Z,99.90
2023-03-06T10:20:48.321Z,99.90
2023-03-06T10:23:28.963Z,99.90
2023-03-06T10:26:01.085Z,99.90
2023-03-06T10:28:36.246Z,99.90
2023-03-06T10:31:09.289Z,99.90
2023-03-06T10:33:46.063Z,99.90
2023-03-06T10:36:17.231Z,99.30
2023-03-06T10:38:48.356Z,99.30
2023-03-06T10:41:24.831Z,98.60
2023-03-06T10:44:23.998Z,98.50
2023-03-06T10:46:53.305Z,98.80
2023-03-06T10:49:30.172Z,99.00
2023-03-06T10:52:00.780Z,98.60
2023-03-06T10:54:31.873Z,98.10
2023-03-06T10:56:58.729Z,97.40
2023-03-06T10:59:29.329Z,97.10
2023-03-06T11:01:58.505Z,96.60
2023-03-06T11:04:27.885Z,95.60
2023-03-06T11:07:24.555Z,94.90
2023-03-06T11:10:02.600Z,94.40
2023-03-06T11:12:32.294Z,94.00
2023-03-06T11:15:18.292Z,93.90
2023-03-06T11:17:51.460Z,93.70
2023-03-06T11:20:20.387Z,93.80
2023-03-06T11:22:51.168Z,93.70
2023-03-06T11:25:21.152Z,93.70
2023-03-06T11:27:55.692Z,93.90
2023-03-06T11:30:26.451Z,94.00
2023-03-06T11:32:58.087Z,93.90
2023-03-06T11:35:28.835Z,93.90
2023-03-06T11:38:04.260Z,93.60
2023-03-06T11:40:36.333Z,93.50
2023-03-06T11:43:14.555Z,93.40
2023-03-06T11:45:45.700Z,93.20
2023-03-06T11:48:23.233Z,93.00
2023-03-06T11:50:52.619Z,92.80
2023-03-06T11:53:23.007Z,92.90
2023-03-06T11:55:59.234Z,92.80
2023-03-06T11:58:48.194Z,92.60
2023-03-06T12:01:24.273Z,92.20
2023-03-06T12:04:00.562Z,92.00
2023-03-06T12:06:38.152Z,91.70
2023-03-06T12:09:28.349Z,91.50
2023-03-06T12:12:08.260Z,91.10
2023-03-06T12:14:53.278Z,90.90
2023-03-06T12:17:27.094Z,90.50
2023-03-06T12:20:15.479Z,90.50
2023-03-06T12:22:57.898Z,90.40
2023-03-06T12:25:38.150Z,90.30
2023-03-06T12:28:33.872Z,90.20
2023-03-06T12:31:19.805Z,89.90
2023-03-06T12:34:10.759Z,89.70
2023-03-06T12:36:50.480Z,89.50
2023-03-06T12:39:24.472Z,89.40
2023-03-06T12:42:04.914Z,89.10
2023-03-06T12:45:03.300Z,89.40
2023-03-06T12:47:33.075Z,90.00
2023-03-06T12:50:04.926Z,90.10
2023-03-06T12:52:33.778Z,89.90
2023-03-06T12:55:07.518Z,90.00
2023-03-06T12:57:35.783Z,90.00
2023-03-06T13:00:02.876Z,90.20
2023-03-06T13:02:54.023Z,90.40
2023-03-06T13:05:36.705Z,90.60
2023-03-06T13:08:32.859Z,90.80
2023-03-06T13:11:21.534Z,91.00
2023-03-06T13:13:50.412Z,91.50
2023-03-06T13:16:24.449Z,91.20
2023-03-06T13:18:57.000Z,91.30
2023-03-06T13:22:09.572Z,91.40
2023-03-06T13:24:37.612Z,91.30
2023-03-06T13:27:07.287Z,91.40
2023-03-06T13:30:06.258Z,91.40
2023-03-06T13:32:35.023Z,91.50
2023-03-06T13:35:02.684Z,91.50
2023-03-06T13:37:56.936Z,91.70
2023-03-06T13:40:33.337Z,92.10
2023-03-06T13:43:18.444Z,92.20
2023-03-06T13:45:48.043Z,92.30
2023-03-06T13:48:43.063Z,92.50
2023-03-06T13:51:21.085Z,92.60
2023-03-06T13:54:11.799Z,92.60
2023-03-06T13:57:34.958Z,92.80
2023-03-06T14:00:15.814Z,92.90
2023-03-06T14:03:08.924Z,93.10
2023-03-06T14:05:43.366Z,93.30
2023-03-06T14:08:14.453Z,93.30
2023-03-06T14:10:41.998Z,93.40
2023-03-06T14:13:16.863Z,93.50
2023-03-06T14:15:45.828Z,93.50
2023-03-06T14:18:23.794Z,93.50
2023-03-06T14:20:55.195Z,93.40
2023-03-06T14:23:32.140Z,93.40
2023-03-06T14:26:03.302Z,93.40
2023-03-06T14:28:31.536Z,93.30
2023-03-06T14:30:59.812Z,93.30
2023-03-06T14:33:32.253Z,93.10
2023-03-06T14:36:02.706Z,93.00
2023-03-06T14:38:35.047Z,92.90
2023-03-06T14:41:02.678Z,92.80
2023-03-06T14:43:31.144Z,92.60
2023-03-06T14:45:59.470Z,92.40
2023-03-06T14:48:38.460Z,92.20
2023-03-06T14:51:06.841Z,92.20
2023-03-06T14:53:34.604Z,92.20
2023-03-06T14:56:06.307Z,92.00
2023-03-06T14:58:38.272Z,92.00
2023-03-06T15:01:08.066Z,92.00
2023-03-06T15:03:44.252Z,92.00
2023-03-06T15:06:16.756Z,92.00
2023-03-06T15:08:46.453Z,91.90
2023-03-06T15:11:13.389Z,91.90
2023-03-06T15:13:40.476Z,91.70
2023-03-06T15:16:22.137Z,91.70
2023-03-06T15:18:57.668Z,91.60
2023-03-06T15:21:26.573Z,91.50
2023-03-06T15:23:55.238Z,91.50
2023-03-06T15:26:27.509Z,91.50
2023-03-06T15:29:08.957Z,91.60
2023-03-06T15:31:37.975Z,91.60
2023-03-06T15:34:25.082Z,91.60
2023-03-06T15:36:54.328Z,91.50
2023-03-06T15:39:38.613Z,91.50
2023-03-06T15:42:20.597Z,91.50
2023-03-06T15:44:49.571Z,91.40
2023-03-06T15:47:16.825Z,91.40
2023-03-06T15:49:45.232Z,91.40
2023-03-06T15:52:12.119Z,91.40
2023-03-06T15:54:38.962Z,91.40
2023-03-06T15:57:08.275Z,91.40
2023-03-06T15:59:41.379Z,91.40
2023-03-06T16:02:15.910Z,91.40
2023-03-06T16:04:44.729Z,91.40
2023-03-06T16:07:12.035Z,91.40
2023-03-06T16:09:39.666Z,91.40
2023-03-06T16:12:12.254Z,91.30
2023-03-06T16:14:40.288Z,91.20
2023-03-06T16:17:07.169Z,91.20
2023-03-06T16:19:34.035Z,91.20
2023-03-06T16:22:02.230Z,91.30
2023-03-06T16:24:29.118Z,91.30
2023-03-06T16:26:58.510Z,91.30
2023-03-06T16:29:27.284Z,91.40
2023-03-06T16:31:56.492Z,91.40
2023-03-06T16:34:24.253Z,91.50
2023-03-06T16:36:51.345Z,91.50
2023-03-06T16:39:21.700Z,91.60
2023-03-06T16:41:51.530Z,91.70
2023-03-06T16:44:19.180Z,91.70
2023-03-06T16:46:48.211Z,91.80
2023-03-06T16:49:17.146Z,92.20
2023-03-06T16:51:45.076Z,92.00
2023-03-06T16:54:12.297Z,92.00
2023-03-06T16:56:40.579Z,92.10
2023-03-06T16:59:07.981Z,92.20
2023-03-06T17:01:34.955Z,92.20
2023-03-06T17:04:02.062Z,92.40
2023-03-06T17:06:30.265Z,92.50
2023-03-06T17:08:58.104Z,92.50
2023-03-06T17:11:25.143Z,92.60
2023-03-06T17:13:55.082Z,92.60
2023-03-06T17:16:22.082Z,92.20
2023-03-06T17:18:49.661Z,92.20
2023-03-06T17:21:16.671Z,92.30
2023-03-06T17:23:44.547Z,92.30
2023-03-06T17:26:13.820Z,92.30
2023-03-06T17:28:41.616Z,92.50
2023-03-06T17:31:14.532Z,92.50
2023-03-06T17:33:41.991Z,92.60
2023-03-06T17:36:09.928Z,92.70
2023-03-06T17:38:36.894Z,92.80
2023-03-06T17:41:04.003Z,92.90
2023-03-06T17:43:31.127Z,93.00
2023-03-06T17:46:01.679Z,93.10
2023-03-06T17:48:29.898Z,93.10
2023-03-06T17:50:57.730Z,93.20
2023-03-06T17:53:24.867Z,93.30
2023-03-06T17:55:51.770Z,93.40
2023-03-06T17:58:18.932Z,93.50
2023-03-06T18:00:45.976Z,93.60
2023-03-06T18:03:12.913Z,93.70
2023-03-06T18:05:41.210Z,93.70
2023-03-06T18:08:10.196Z,93.80
2023-03-06T18:10:39.278Z,93.90
2023-03-06T18:13:06.368Z,94.00
2023-03-06T18:15:33.232Z,94.00
2023-03-06T18:18:00.263Z,94.10
2023-03-06T18:20:27.537Z,94.20
2023-03-06T18:22:55.820Z,94.20
2023-03-06T18:25:22.684Z,94.30
2023-03-06T18:27:49.577Z,94.30
2023-03-06T18:30:17.086Z,94.40
2023-03-06T18:32:44.010Z,94.40
2023-03-06T18:35:10.945Z,94.50
2023-03-06T18:37:37.919Z,94.50
2023-03-06T18:40:07.674Z,94.60
2023-03-06T18:42:34.607Z,94.60
2023-03-06T18:45:01.512Z,94.60
2023-03-06T18:47:28.451Z,94.60
2023-03-06T18:49:55.366Z,94.70
2023-03-06T18:52:22.317Z,94.70
2023-03-06T18:54:50.443Z,94.80
2023-03-06T18:57:19.858Z,94.80
2023-03-06T18:59:46.842Z,94.70
2023-03-06T19:02:13.711Z,94.80
2023-03-06T19:04:40.558Z,94.70
2023-03-06T19:07:08.009Z,94.70
2023-03-06T19:09:34.956Z,94.70
2023-03-06T19:12:03.456Z,94.70
2023-03-06T19:14:31.842Z,94.70
2023-03-06T19:16:58.670Z,94.70
2023-03-06T19:19:26.872Z,95.00
2023-03-06T19:21:53.812Z,94.80
2023-03-06T19:24:20.603Z,94.80
2023-03-06T19:26:47.638Z,94.70
2023-03-06T19:29:14.813Z,94.80
2023-03-06T19:31:43.160Z,94.80
2023-03-06T19:34:10.153Z,94.80
2023-03-06T19:36:38.813Z,94.80
2023-03-06T19:39:07.442Z,94.80
2023-03-06T19:41:34.753Z,94.80
2023-03-06T19:44:05.942Z,94.90
2023-03-06T19:46:34.550Z,94.90
2023-03-06T19:49:09.664Z,94.90
2023-03-06T19:51:37.070Z,95.00
2023-03-06T19:54:04.039Z,95.00
2023-03-06T19:56:33.534Z,95.10
2023-03-06T19:59:00.591Z,95.10
2023-03-06T20:01:28.222Z,95.20
2023-03-06T20:03:58.579Z,95.30
2023-03-06T20:06:28.892Z,95.30
2023-03-06T20:08:55.806Z,95.40
2023-03-06T20:11:24.428Z,95.40
2023-03-06T20:13:51.504Z,95.40
2023-03-06T20:16:18.983Z,95.50
2023-03-06T20:18:45.968Z,95.50
2023-03-06T20:21:13.766Z,95.50
2023-03-06T20:23:42.516Z,95.60
2023-03-06T20:26:11.966Z,95.60
2023-03-06T20:28:40.542Z,95.60
2023-03-06T20:31:08.768Z,95.60
2023-03-06T20:33:35.902Z,95.70
2023-03-06T20:36:03.402Z,95.70
2023-03-06T20:38:30.332Z,95.80
2023-03-06T20:40:59.766Z,95.90
2023-03-06T20:43:26.652Z,96.00
2023-03-06T20:45:57.927Z,96.00
2023-03-06T20:48:25.000Z,96.00
2023-03-06T20:51:00.166Z,96.10
2023-03-06T20:53:27.348Z,96.20
2023-03-06T20:55:54.331Z,96.20
2023-03-06T20:58:28.341Z,96.20
2023-03-06T21:00:55.389Z,96.30
2023-03-06T21:03:22.246Z,96.30
2023-03-06T21:05:49.213Z,96.40
2023-03-06T21:08:16.561Z,96.50
2023-03-06T21:10:45.958Z,96.50
2023-03-06T21:13:13.104Z,96.50
2023-03-06T21:15:41.931Z,96.50
2023-03-06T21:18:09.840Z,96.60
2023-03-06T21:20:38.880Z,96.70
2023-03-06T21:23:05.859Z,96.70
2023-03-06T21:25:33.119Z,96.80
2023-03-06T21:28:00.261Z,96.90
2023-03-06T21:30:27.443Z,96.90
2023-03-06T21:32:55.783Z,97.00
2023-03-06T21:35:22.587Z,97.10
2023-03-06T21:37:49.534Z,97.10
2023-03-06T21:40:16.451Z,97.20
2023-03-06T21:42:43.326Z,97.30
2023-03-06T21:45:10.993Z,97.40
2023-03-06T21:47:38.845Z,97.40
2023-03-06T21:50:09.867Z,97.50
2023-03-06T21:52:37.032Z,97.60
2023-03-06T21:55:04.425Z,97.90
2023-03-06T21:57:31.715Z,97.70
2023-03-06T21:59:58.652Z,97.80
2023-03-06T22:02:25.503Z,97.80
2023-03-06T22:04:53.224Z,97.90
2023-03-06T22:07:21.646Z,97.90
2023-03-06T22:09:51.502Z,98.00
2023-03-06T22:12:18.314Z,98.10
2023-03-06T22:14:47.446Z,98.20
2023-03-06T22:17:14.336Z,98.20
2023-03-06T22:19:41.215Z,98.40
2023-03-06T22:22:10.447Z,98.30
2023-03-06T22:24:39.222Z,98.40
2023-03-06T22:27:06.103Z,98.50
2023-03-06T22:29:33.280Z,98.60
2023-03-06T22:32:00.230Z,98.70
2023-03-06T22:34:27.556Z,98.70
2023-03-06T22:36:54.497Z,98.80
2023-03-06T22:39:21.292Z,98.80
2023-03-06T22:41:49.544Z,98.80
2023-03-06T22:44:18.117Z,98.90
2023-03-06T22:46:45.884Z,99.00
2023-03-06T22:49:14.096Z,99.00
2023-03-06T22:51:40.942Z,99.10
2023-03-06T22:54:08.180Z,99.10
2023-03-06T22:56:35.214Z,99.10
2023-03-06T22:59:04.339Z,99.20
2023-03-06T23:01:32.925Z,99.20
2023-03-06T23:04:01.991Z,99.40
2023-03-06T23:06:30.710Z,99.40
2023-03-06T23:08:59.582Z,99.50
2023-03-06T23:11:27.977Z,99.50
2023-03-06T23:13:55.287Z,99.50
2023-03-06T23:16:24.216Z,99.60
2023-03-06T23:18:52.362Z,99.70
2023-03-06T23:21:21.502Z,99.70
2023-03-06T23:23:49.410Z,99.70
2023-03-06T23:26:16.676Z,99.80
2023-03-06T23:28:43.674Z,99.80
2023-03-06T23:31:12.332Z,99.80
2023-03-06T23:33:41.271Z,99.90
2023-03-06T23:36:10.931Z,99.90
2023-03-06T23:38:38.238Z,99.90
2023-03-06T23:41:06.811Z,99.90
2023-03-06T23:43:34.337Z,99.90
2023-03-06T23:46:01.494Z,99.90
2023-03-06T23:48:29.143Z,99.90
2023-03-06T23:51:00.558Z,99.90
2023-03-06T23:53:27.419Z,99.90
2023-03-06T23:55:54.297Z,99.90
2023-03-06T23:58:21.121Z,99.90
